createdAt,value
2023-03-17T00:00:41.594Z,7.78
2023-03-17T00:01:43.457Z,8.15
2023-03-17T00:02:47.047Z,8.82
2023-03-17T00:03:50.095Z,17.67
2023-03-17T00:04:52.064Z,17.15
2023-03-17T00:05:54.969Z,12.90
2023-03-17T00:06:56.898Z,12.73
2023-03-17T00:08:13.150Z,10.38
2023-03-17T00:09:17.867Z,9.13
2023-03-17T00:10:25.243Z,9.70
2023-03-17T00:11:28.157Z,8.18
2023-03-17T00:12:30.141Z,7.20
2023-03-17T00:13:32.020Z,7.68
2023-03-17T00:14:33.814Z,8.63
2023-03-17T00:15:35.869Z,11.00
2023-03-17T00:16:43.355Z,7.43
2023-03-17T00:17:46.439Z,7.20
2023-03-17T00:18:50.404Z,7.70
2023-03-17T00:19:52.226Z,8.32
2023-03-17T00:20:54.060Z,6.97
2023-03-17T00:21:55.943Z,6.90
2023-03-17T00:23:01.693Z,7.75
2023-03-17T00:24:03.476Z,8.30
2023-03-17T00:25:20.160Z,9.50
2023-03-17T00:26:22.580Z,7.85
2023-03-17T00:27:24.393Z,7.20
2023-03-17T00:28:28.009Z,7.95
2023-03-17T00:29:29.801Z,13.15
2023-03-17T00:30:31.742Z,8.15
2023-03-17T00:31:34.925Z,9.40
2023-03-17T00:32:38.558Z,8.23
2023-03-17T00:33:41.186Z,6.90
2023-03-17T00:34:43.982Z,7.15
2023-03-17T00:35:46.305Z,7.13
2023-03-17T00:36:49.621Z,8.73
2023-03-17T00:37:53.717Z,8.38
2023-03-17T00:38:56.274Z,8.20
2023-03-17T00:39:58.087Z,7.07
2023-03-17T00:40:59.893Z,9.98
2023-03-17T00:42:01.773Z,8.23
2023-03-17T00:43:03.521Z,9.60
2023-03-17T00:44:05.470Z,8.57
2023-03-17T00:45:07.925Z,7.65
2023-03-17T00:46:15.913Z,8.07
2023-03-17T00:47:17.822Z,7.22
2023-03-17T00:48:22.074Z,8.48
2023-03-17T00:49:25.650Z,8.25
2023-03-17T00:50:29.231Z,9.15
2023-03-17T00:51:31.285Z,9.38
2023-03-17T00:52:33.419Z,8.30
2023-03-17T00:53:35.367Z,10.93
2023-03-17T00:54:37.202Z,8.77
2023-03-17T00:55:39.018Z,10.73
2023-03-17T00:56:41.816Z,10.33
2023-03-17T00:57:43.866Z,8.68
2023-03-17T00:58:46.287Z,10.45
2023-03-17T00:59:48.388Z,10.65
2023-03-17T01:00:50.538Z,8.77
2023-03-17T01:01:52.725Z,9.40
2023-03-17T01:02:56.784Z,9.13
2023-03-17T01:03:58.658Z,11.40
2023-03-17T01:05:06.217Z,9.32
2023-03-17T01:06:11.735Z,10.55
2023-03-17T01:07:13.605Z,9.60
2023-03-17T01:08:16.417Z,8.95
2023-03-17T01:09:19.698Z,9.25
2023-03-17T01:10:27.106Z,8.80
2023-03-17T01:11:28.994Z,8.07
2023-03-17T01:12:30.777Z,10.35
2023-03-17T01:13:32.554Z,10.73
2023-03-17T01:14:37.377Z,7.35
2023-03-17T01:15:43.162Z,9.07
2023-03-17T01:16:45.109Z,9.23
2023-03-17T01:17:47.068Z,7.87
2023-03-17T01:18:49.545Z,9.35
2023-03-17T01:19:51.391Z,9.60
2023-03-17T01:20:53.331Z,10.90
2023-03-17T01:21:55.138Z,9.02
2023-03-17T01:22:56.925Z,8.35
2023-03-17T01:23:59.097Z,7.82
2023-03-17T01:25:00.871Z,7.00
2023-03-17T01:26:02.773Z,8.65
2023-03-17T01:27:04.584Z,10.77
2023-03-17T01:28:06.750Z,8.47
2023-03-17T01:29:08.668Z,8.75
2023-03-17T01:30:21.645Z,8.57
2023-03-17T01:31:23.524Z,9.38
2023-03-17T01:32:25.326Z,7.47
2023-03-17T01:33:27.243Z,10.15
2023-03-17T01:34:29.175Z,8.52
2023-03-17T01:35:31.094Z,9.27
2023-03-17T01:36:32.919Z,10.25
2023-03-17T01:37:34.802Z,9.65
2023-03-17T01:38:36.602Z,8.47
2023-03-17T01:39:38.399Z,8.57
2023-03-17T01:40:51.418Z,7.07
2023-03-17T01:41:54.367Z,8.48
2023-03-17T01:43:08.368Z,8.57
2023-03-17T01:44:16.065Z,8.93
2023-03-17T01:45:55.303Z,10.73
2023-03-17T01:46:57.145Z,9.85
2023-03-17T01:47:58.996Z,12.52
2023-03-17T01:49:03.409Z,11.35
2023-03-17T01:50:08.818Z,12.83
2023-03-17T01:51:17.689Z,11.38
2023-03-17T01:52:21.902Z,10.40
2023-03-17T01:53:23.937Z,13.55
2023-03-17T01:54:44.428Z,9.00
2023-03-17T01:55:46.586Z,9.88
2023-03-17T01:56:51.834Z,9.60
2023-03-17T01:57:54.749Z,10.50
2023-03-17T01:58:59.790Z,10.85
2023-03-17T02:00:09.508Z,12.75
2023-03-17T02:01:11.689Z,9.27
2023-03-17T02:02:20.301Z,9.50
2023-03-17T02:03:23.727Z,7.43
2023-03-17T02:04:25.859Z,11.88
2023-03-17T02:05:29.987Z,9.77
2023-03-17T02:06:33.885Z,10.45
2023-03-17T02:07:36.211Z,10.93
2023-03-17T02:08:38.022Z,11.43
2023-03-17T02:11:05.497Z,11.40
2023-03-17T02:12:09.087Z,14.90
2023-03-17T02:13:13.453Z,11.75
2023-03-17T02:14:15.276Z,10.05
2023-03-17T02:15:17.219Z,14.45
2023-03-17T02:16:19.025Z,12.07
2023-03-17T02:17:22.939Z,10.98
2023-03-17T02:18:24.796Z,11.68
2023-03-17T02:19:27.286Z,11.63
2023-03-17T02:20:29.384Z,10.13
2023-03-17T02:21:37.990Z,8.93
2023-03-17T02:22:39.848Z,11.70
2023-03-17T02:23:41.758Z,11.18
2023-03-17T02:24:47.828Z,8.00
2023-03-17T02:25:51.145Z,9.00
2023-03-17T02:26:55.557Z,7.60
2023-03-17T02:28:02.238Z,8.95
2023-03-17T02:29:04.949Z,9.35
2023-03-17T02:30:10.592Z,8.40
2023-03-17T02:31:12.743Z,9.00
2023-03-17T02:32:17.018Z,10.50
2023-03-17T02:33:18.881Z,9.10
2023-03-17T02:34:20.751Z,10.95
2023-03-17T02:35:22.547Z,10.27
2023-03-17T02:36:24.642Z,8.52
2023-03-17T02:37:26.474Z,7.97
2023-03-17T02:38:28.320Z,9.18
2023-03-17T02:39:30.098Z,9.40
2023-03-17T02:40:32.484Z,9.80
2023-03-17T02:41:35.064Z,9.68
2023-03-17T02:42:37.303Z,8.52
2023-03-17T02:43:39.122Z,8.70
2023-03-17T02:44:40.927Z,8.30
2023-03-17T02:45:42.872Z,7.90
2023-03-17T02:46:44.769Z,9.10
2023-03-17T02:47:47.051Z,7.63
2023-03-17T02:48:49.898Z,9.25
2023-03-17T02:49:52.516Z,7.55
2023-03-17T02:50:54.365Z,8.25
2023-03-17T02:51:56.349Z,8.80
2023-03-17T02:52:58.105Z,10.27
2023-03-17T02:54:21.881Z,7.47
2023-03-17T02:55:23.688Z,9.18
2023-03-17T02:56:25.416Z,9.02
2023-03-17T02:57:27.196Z,8.35
2023-03-17T02:58:28.985Z,10.63
2023-03-17T02:59:30.659Z,8.13
2023-03-17T03:00:32.606Z,9.05
2023-03-17T03:01:34.880Z,8.00
2023-03-17T03:02:38.011Z,8.23
2023-03-17T03:03:39.847Z,8.10
2023-03-17T03:04:41.625Z,9.20
2023-03-17T03:05:43.419Z,9.48
2023-03-17T03:06:45.279Z,8.23
2023-03-17T03:07:47.008Z,9.23
2023-03-17T03:08:48.735Z,8.55
2023-03-17T03:09:50.381Z,8.85
2023-03-17T03:10:52.119Z,9.50
2023-03-17T03:11:53.945Z,7.70
2023-03-17T03:12:55.580Z,9.43
2023-03-17T03:13:57.622Z,9.23
2023-03-17T03:14:59.305Z,10.47
2023-03-17T03:16:01.043Z,9.85
2023-03-17T03:17:02.848Z,9.80
2023-03-17T03:18:04.625Z,12.20
2023-03-17T03:19:06.401Z,8.82
2023-03-17T03:20:09.054Z,10.65
2023-03-17T03:21:10.941Z,9.57
2023-03-17T03:22:12.657Z,8.60
2023-03-17T03:23:14.780Z,10.07
2023-03-17T03:24:16.607Z,10.00
2023-03-17T03:25:18.396Z,9.67
2023-03-17T03:26:20.090Z,9.90
2023-03-17T03:27:21.878Z,10.25
2023-03-17T03:28:24.360Z,9.30
2023-03-17T03:29:26.131Z,13.00
2023-03-17T03:30:27.822Z,9.00
2023-03-17T03:31:29.688Z,8.85
2023-03-17T03:32:31.456Z,10.80
2023-03-17T03:33:33.185Z,10.55
2023-03-17T03:34:34.931Z,10.05
2023-03-17T03:35:36.675Z,10.00
2023-03-17T03:36:38.387Z,9.80
2023-03-17T03:37:40.136Z,10.73
2023-03-17T03:38:41.880Z,11.75
2023-03-17T03:39:43.580Z,10.13
2023-03-17T03:40:45.283Z,9.05
2023-03-17T03:41:46.977Z,10.30
2023-03-17T03:42:48.759Z,9.77
2023-03-17T03:43:50.417Z,8.50
2023-03-17T03:44:52.086Z,8.13
2023-03-17T03:45:53.922Z,8.70
2023-03-17T03:46:55.569Z,9.13
2023-03-17T03:47:57.343Z,10.88
2023-03-17T03:48:59.017Z,8.43
2023-03-17T03:50:01.005Z,8.50
2023-03-17T03:51:03.598Z,7.78
2023-03-17T03:52:05.700Z,8.57
2023-03-17T03:53:07.390Z,9.18
2023-03-17T03:54:09.206Z,9.07
2023-03-17T03:55:10.965Z,9.43
2023-03-17T03:56:12.593Z,6.63
2023-03-17T03:57:14.239Z,7.47
2023-03-17T03:58:16.084Z,7.93
2023-03-17T03:59:17.774Z,8.25
2023-03-17T04:00:19.871Z,6.97
2023-03-17T04:01:21.565Z,7.95
2023-03-17T04:02:23.306Z,6.43
2023-03-17T04:03:25.118Z,9.60
2023-03-17T04:04:26.928Z,6.43
2023-03-17T04:05:28.855Z,7.07
2023-03-17T04:06:30.634Z,8.37
2023-03-17T04:07:32.291Z,8.65
2023-03-17T04:08:34.110Z,7.22
2023-03-17T04:09:36.866Z,8.38
2023-03-17T04:10:38.618Z,9.60
2023-03-17T04:11:40.325Z,9.35
2023-03-17T04:12:42.738Z,10.10
2023-03-17T04:13:44.435Z,9.88
2023-03-17T04:14:46.447Z,11.23
2023-03-17T04:15:48.205Z,8.95
2023-03-17T04:16:49.899Z,6.43
2023-03-17T04:17:51.712Z,9.45
2023-03-17T04:18:53.447Z,8.20
2023-03-17T04:19:55.842Z,9.55
2023-03-17T04:20:58.058Z,7.93
2023-03-17T04:21:59.759Z,9.43
2023-03-17T04:23:01.510Z,9.50
2023-03-17T04:24:04.520Z,12.13
2023-03-17T04:25:06.775Z,14.63
2023-03-17T04:26:09.156Z,13.95
2023-03-17T04:27:10.974Z,18.27
2023-03-17T04:28:12.740Z,24.73
2023-03-17T04:29:14.414Z,21.42
2023-03-17T04:30:16.251Z,16.67
2023-03-17T04:31:18.028Z,24.05
2023-03-17T04:32:20.138Z,30.73
2023-03-17T04:33:21.998Z,29.73
2023-03-17T04:34:23.842Z,25.75
2023-03-17T04:35:25.591Z,17.83
2023-03-17T04:36:27.788Z,12.98
2023-03-17T04:37:29.434Z,8.23
2023-03-17T04:38:31.182Z,10.93
2023-03-17T04:39:32.870Z,10.63
2023-03-17T04:40:34.594Z,8.13
2023-03-17T04:41:36.688Z,9.10
2023-03-17T04:42:39.086Z,8.57
2023-03-17T04:43:40.956Z,9.32
2023-03-17T04:44:42.648Z,10.77
2023-03-17T04:45:44.372Z,9.63
2023-03-17T04:46:46.126Z,9.02
2023-03-17T04:47:47.880Z,9.07
2023-03-17T04:48:49.577Z,8.45
2023-03-17T04:49:51.245Z,8.18
2023-03-17T04:50:52.892Z,12.35
2023-03-17T04:51:55.499Z,13.13
2023-03-17T04:52:57.195Z,31.90
2023-03-17T04:53:58.956Z,26.40
2023-03-17T04:55:00.764Z,14.05
2023-03-17T04:56:02.433Z,14.00
2023-03-17T04:57:04.187Z,9.48
2023-03-17T04:58:05.830Z,11.03
2023-03-17T04:59:07.826Z,8.35
2023-03-17T05:00:10.895Z,9.95
2023-03-17T05:01:12.632Z,10.13
2023-03-17T05:02:14.585Z,9.65
2023-03-17T05:03:26.347Z,10.23
2023-03-17T05:04:32.003Z,8.55
2023-03-17T05:05:34.967Z,9.80
2023-03-17T05:06:36.701Z,10.73
2023-03-17T05:07:38.511Z,8.32
2023-03-17T05:08:40.236Z,9.83
2023-03-17T05:09:41.993Z,8.32
2023-03-17T05:10:44.139Z,8.52
2023-03-17T05:11:45.805Z,8.95
2023-03-17T05:12:47.507Z,9.60
2023-03-17T05:13:49.237Z,8.02
2023-03-17T05:14:51.003Z,6.78
2023-03-17T05:15:55.281Z,6.82
2023-03-17T05:16:57.037Z,7.53
2023-03-17T05:17:58.732Z,8.65
2023-03-17T05:19:00.431Z,7.27
2023-03-17T05:20:02.151Z,7.40
2023-03-17T05:21:04.941Z,8.90
2023-03-17T05:22:06.735Z,8.13
2023-03-17T05:23:08.725Z,7.15
2023-03-17T05:24:10.681Z,8.10
2023-03-17T05:25:12.456Z,8.85
2023-03-17T05:26:14.187Z,7.53
2023-03-17T05:27:15.906Z,8.77
2023-03-17T05:28:17.582Z,9.02
2023-03-17T05:29:19.328Z,10.23
2023-03-17T05:30:21.082Z,9.93
2023-03-17T05:31:22.864Z,10.15
2023-03-17T05:32:24.727Z,8.55
2023-03-17T05:33:26.685Z,9.52
2023-03-17T05:34:28.351Z,12.02
2023-03-17T05:35:30.227Z,14.38
2023-03-17T05:36:32.548Z,9.40
2023-03-17T05:37:34.345Z,11.68
2023-03-17T05:38:36.146Z,13.40
2023-03-17T05:39:37.810Z,11.83
2023-03-17T05:40:39.680Z,11.23
2023-03-17T05:41:41.401Z,11.27
2023-03-17T05:42:43.195Z,11.35
2023-03-17T05:43:44.955Z,16.88
2023-03-17T05:44:46.689Z,10.35
2023-03-17T05:45:48.441Z,11.48
2023-03-17T05:46:50.411Z,9.95
2023-03-17T05:47:52.119Z,9.38
2023-03-17T05:48:53.864Z,11.18
2023-03-17T05:49:55.530Z,14.03
2023-03-17T05:50:57.317Z,12.05
2023-03-17T05:51:59.004Z,11.25
2023-03-17T05:53:00.710Z,14.75
2023-03-17T05:54:02.313Z,13.55
2023-03-17T05:55:05.572Z,13.35
2023-03-17T05:56:08.006Z,13.07
2023-03-17T05:57:09.661Z,15.68
2023-03-17T05:58:11.569Z,14.18
2023-03-17T05:59:13.404Z,11.20
2023-03-17T06:00:15.645Z,12.23
2023-03-17T06:01:17.526Z,13.52
2023-03-17T06:02:19.334Z,11.25
2023-03-17T06:03:21.109Z,10.55
2023-03-17T06:04:22.859Z,9.38
2023-03-17T06:05:24.654Z,12.73
2023-03-17T06:06:26.392Z,11.23
2023-03-17T06:07:33.082Z,10.38
2023-03-17T06:08:39.761Z,11.02
2023-03-17T06:09:41.447Z,10.40
2023-03-17T06:10:43.629Z,12.67
2023-03-17T06:11:45.331Z,12.60
2023-03-17T06:12:46.977Z,12.77
2023-03-17T06:13:48.812Z,11.48
2023-03-17T06:14:50.501Z,14.10
2023-03-17T06:15:52.257Z,14.88
2023-03-17T06:16:54.552Z,13.45
2023-03-17T06:17:56.353Z,11.25
2023-03-17T06:18:58.064Z,13.43
2023-03-17T06:19:59.754Z,12.00
2023-03-17T06:21:01.530Z,10.40
2023-03-17T06:22:03.263Z,12.30
2023-03-17T06:23:05.970Z,12.77
2023-03-17T06:24:08.880Z,10.32
2023-03-17T06:25:11.356Z,12.55
2023-03-17T06:26:13.109Z,12.20
2023-03-17T06:27:14.964Z,10.13
2023-03-17T06:28:16.641Z,13.32
2023-03-17T06:29:19.266Z,10.15
2023-03-17T06:30:21.960Z,10.70
2023-03-17T06:31:23.762Z,10.70
2023-03-17T06:32:25.881Z,11.25
2023-03-17T06:33:27.634Z,11.27
2023-03-17T06:34:29.568Z,11.65
2023-03-17T06:35:32.089Z,11.88
2023-03-17T06:36:34.130Z,11.43
2023-03-17T06:37:36.304Z,10.45
2023-03-17T06:38:38.037Z,9.75
2023-03-17T06:39:39.845Z,10.02
2023-03-17T06:40:41.577Z,10.40
2023-03-17T06:41:43.325Z,8.43
2023-03-17T06:42:45.120Z,10.52
2023-03-17T06:43:46.887Z,8.93
2023-03-17T06:44:48.541Z,9.63
2023-03-17T06:45:51.379Z,10.88
2023-03-17T06:46:53.075Z,9.93
2023-03-17T06:47:54.897Z,10.50
2023-03-17T06:48:56.772Z,11.57
2023-03-17T06:49:58.500Z,9.98
2023-03-17T06:51:01.009Z,8.82
2023-03-17T06:52:02.928Z,8.67
2023-03-17T06:53:04.787Z,8.02
2023-03-17T06:54:07.215Z,9.07
2023-03-17T06:55:09.614Z,8.38
2023-03-17T06:56:20.143Z,9.38
2023-03-17T06:57:25.414Z,8.60
2023-03-17T06:58:27.080Z,8.70
2023-03-17T06:59:28.769Z,8.85
2023-03-17T07:00:30.632Z,7.82
2023-03-17T07:01:32.331Z,10.18
2023-03-17T07:02:34.652Z,17.00
2023-03-17T07:03:38.422Z,16.75
2023-03-17T07:04:40.312Z,12.27
2023-03-17T07:05:42.373Z,46.10
2023-03-17T07:06:44.174Z,53.55
2023-03-17T07:07:45.832Z,17.67
2023-03-17T07:08:47.515Z,13.73
2023-03-17T07:09:49.196Z,11.40
2023-03-17T07:10:50.994Z,10.32
2023-03-17T07:11:53.198Z,12.35
2023-03-17T07:12:54.885Z,12.07
2023-03-17T07:13:56.759Z,9.90
2023-03-17T07:14:58.799Z,9.13
2023-03-17T07:16:00.734Z,7.88
2023-03-17T07:17:03.770Z,9.52
2023-03-17T07:18:05.745Z,9.88
2023-03-17T07:19:07.627Z,7.78
2023-03-17T07:20:10.649Z,9.40
2023-03-17T07:21:12.497Z,7.95
2023-03-17T07:22:14.313Z,7.20
2023-03-17T07:23:20.585Z,9.07
2023-03-17T07:24:23.069Z,7.53
2023-03-17T07:25:25.062Z,7.75
2023-03-17T07:26:26.870Z,6.72
2023-03-17T07:27:28.689Z,6.03
2023-03-17T07:28:30.480Z,6.55
2023-03-17T07:29:32.214Z,7.70
2023-03-17T07:30:34.010Z,8.65
2023-03-17T07:31:36.246Z,12.35
2023-03-17T07:32:38.051Z,9.57
2023-03-17T07:33:40.817Z,25.23
2023-03-17T07:34:42.595Z,29.40
2023-03-17T07:35:44.465Z,23.23
2023-03-17T07:36:46.185Z,13.23
2023-03-17T07:37:47.942Z,9.43
2023-03-17T07:38:49.676Z,7.97
2023-03-17T07:39:51.414Z,11.18
2023-03-17T07:40:53.177Z,9.52
2023-03-17T07:41:55.161Z,6.68
2023-03-17T07:42:57.043Z,7.57
2023-03-17T07:43:58.706Z,9.17
2023-03-17T07:45:00.425Z,19.70
2023-03-17T07:46:03.997Z,16.83
2023-03-17T07:47:07.054Z,18.15
2023-03-17T07:48:08.859Z,15.10
2023-03-17T07:49:10.716Z,12.57
2023-03-17T07:50:13.213Z,10.73
2023-03-17T07:51:17.353Z,20.05
2023-03-17T07:52:19.606Z,21.85
2023-03-17T07:53:21.410Z,14.82
2023-03-17T07:54:23.150Z,9.83
2023-03-17T07:55:24.961Z,9.55
2023-03-17T07:56:26.616Z,8.02
2023-03-17T07:57:28.395Z,9.25
2023-03-17T07:58:30.123Z,8.27
2023-03-17T07:59:32.508Z,8.75
2023-03-17T08:00:34.664Z,9.82
2023-03-17T08:01:36.911Z,10.10
2023-03-17T08:02:38.781Z,11.40
2023-03-17T08:03:41.637Z,10.13
2023-03-17T08:04:44.583Z,9.30
2023-03-17T08:05:51.866Z,9.02
2023-03-17T08:06:53.828Z,10.75
2023-03-17T08:07:55.537Z,19.13
2023-03-17T08:08:57.271Z,18.95
2023-03-17T08:09:59.020Z,28.05
2023-03-17T08:11:05.353Z,18.05
2023-03-17T08:12:07.699Z,8.23
2023-03-17T08:13:09.373Z,7.63
2023-03-17T08:14:11.102Z,5.28
2023-03-17T08:15:12.798Z,6.93
2023-03-17T08:16:14.619Z,5.00
2023-03-17T08:17:16.742Z,5.90
2023-03-17T08:18:18.467Z,10.93
2023-03-17T08:19:20.213Z,9.82
2023-03-17T08:20:21.964Z,15.77
2023-03-17T08:21:23.638Z,6.38
2023-03-17T08:22:25.479Z,6.32
2023-03-17T08:23:27.220Z,5.78
2023-03-17T08:24:28.941Z,6.22
2023-03-17T08:25:30.757Z,5.80
2023-03-17T08:26:32.670Z,4.40
2023-03-17T08:27:34.458Z,6.28
2023-03-17T08:28:36.461Z,6.30
2023-03-17T08:29:38.231Z,7.60
2023-03-17T08:30:40.450Z,8.60
2023-03-17T08:31:45.200Z,5.82
2023-03-17T08:32:48.278Z,4.88
2023-03-17T08:33:52.690Z,5.93
2023-03-17T08:34:54.659Z,10.65
2023-03-17T08:35:56.482Z,13.07
2023-03-17T08:36:58.181Z,14.88
2023-03-17T08:37:59.939Z,26.63
2023-03-17T08:39:01.896Z,11.77
2023-03-17T08:40:05.113Z,8.68
2023-03-17T08:41:09.471Z,12.27
2023-03-17T08:42:11.872Z,7.55
2023-03-17T08:43:15.690Z,6.13
2023-03-17T08:44:17.395Z,7.25
2023-03-17T08:45:19.407Z,6.68
2023-03-17T08:46:29.229Z,6.17
2023-03-17T08:47:31.178Z,6.10
2023-03-17T08:48:34.628Z,5.95
2023-03-17T08:49:36.655Z,5.53
2023-03-17T08:50:38.480Z,5.45
2023-03-17T08:51:40.525Z,5.28
2023-03-17T08:52:42.245Z,5.50
2023-03-17T08:53:44.424Z,10.18
2023-03-17T08:54:46.109Z,5.20
2023-03-17T08:55:47.810Z,6.00
2023-03-17T08:56:49.497Z,5.30
2023-03-17T08:57:51.264Z,6.45
2023-03-17T08:58:53.219Z,6.78
2023-03-17T08:59:55.098Z,6.72
2023-03-17T09:01:01.421Z,8.68
2023-03-17T09:02:03.155Z,7.85
2023-03-17T09:03:04.921Z,14.05
2023-03-17T09:04:06.909Z,11.52
2023-03-17T09:05:12.356Z,12.30
2023-03-17T09:06:14.345Z,5.68
2023-03-17T09:07:16.061Z,6.33
2023-03-17T09:08:18.068Z,7.97
2023-03-17T09:09:19.739Z,5.78
2023-03-17T09:10:21.483Z,3.78
2023-03-17T09:11:27.044Z,5.15
2023-03-17T09:12:28.919Z,8.63
2023-03-17T09:13:31.147Z,9.23
2023-03-17T09:14:42.912Z,4.22
2023-03-17T09:15:45.512Z,3.80
2023-03-17T09:16:47.228Z,4.60
2023-03-17T09:17:48.912Z,4.83
2023-03-17T09:18:51.263Z,3.78
2023-03-17T09:19:52.973Z,5.47
2023-03-17T09:20:54.609Z,3.95
2023-03-17T09:21:56.355Z,4.47
2023-03-17T09:22:58.461Z,7.00
2023-03-17T09:24:02.396Z,9.68
2023-03-17T09:25:12.450Z,5.97
2023-03-17T09:26:14.421Z,4.82
2023-03-17T09:27:16.197Z,4.20
2023-03-17T09:28:17.978Z,5.67
2023-03-17T09:29:19.751Z,4.63
2023-03-17T09:30:21.600Z,5.85
2023-03-17T09:31:23.415Z,5.97
2023-03-17T09:32:25.245Z,4.78
2023-03-17T09:33:27.690Z,5.05
2023-03-17T09:34:29.469Z,7.40
2023-03-17T09:35:31.242Z,4.30
2023-03-17T09:36:33.690Z,5.38
2023-03-17T09:37:35.475Z,6.07
2023-03-17T09:38:38.401Z,4.40
2023-03-17T09:39:40.144Z,4.80
2023-03-17T09:40:54.011Z,4.63
2023-03-17T09:42:15.888Z,11.20
2023-03-17T09:43:38.646Z,11.35
2023-03-17T09:44:56.325Z,9.13
2023-03-17T09:46:10.800Z,5.35
2023-03-17T09:47:47.886Z,3.83
2023-03-17T09:49:12.285Z,4.15
2023-03-17T09:50:24.322Z,4.75
2023-03-17T09:51:28.286Z,3.43
2023-03-17T09:52:33.290Z,4.13
2023-03-17T09:54:04.823Z,2.92
2023-03-17T09:55:11.765Z,3.50
2023-03-17T09:56:19.005Z,3.38
2023-03-17T09:57:35.114Z,4.90
2023-03-17T09:58:39.182Z,3.90
2023-03-17T09:59:44.259Z,3.53
2023-03-17T10:00:46.037Z,4.05
2023-03-17T10:01:47.927Z,3.97
2023-03-17T10:02:49.728Z,4.50
2023-03-17T10:03:51.439Z,5.28
2023-03-17T10:04:54.419Z,3.13
2023-03-17T10:06:24.740Z,3.65
2023-03-17T10:08:29.622Z,3.58
2023-03-17T10:09:58.969Z,2.28
2023-03-17T10:11:18.922Z,2.83
2023-03-17T10:12:38.234Z,2.92
2023-03-17T10:13:55.188Z,4.10
2023-03-17T10:15:06.153Z,3.28
2023-03-17T10:16:13.251Z,5.63
2023-03-17T10:17:19.048Z,2.58
2023-03-17T10:18:26.233Z,3.58
2023-03-17T10:20:08.847Z,2.75
2023-03-17T10:21:15.828Z,3.65
2023-03-17T10:22:28.825Z,4.95
2023-03-17T10:23:33.743Z,3.05
2023-03-17T10:24:39.779Z,4.30
2023-03-17T10:25:41.569Z,3.72
2023-03-17T10:26:49.033Z,3.80
2023-03-17T10:27:59.318Z,2.93
2023-03-17T10:29:05.235Z,3.95
2023-03-17T10:30:16.531Z,4.53
2023-03-17T10:31:26.644Z,5.03
2023-03-17T10:32:31.211Z,3.03
2023-03-17T10:33:32.976Z,3.10
2023-03-17T10:34:38.003Z,3.38
2023-03-17T10:35:40.175Z,3.33
2023-03-17T10:36:48.982Z,3.22
2023-03-17T10:37:53.397Z,2.90
2023-03-17T10:39:04.605Z,2.77
2023-03-17T10:40:08.142Z,3.35
2023-03-17T10:41:14.171Z,3.53
2023-03-17T10:42:30.403Z,4.00
2023-03-17T10:43:40.948Z,5.03
2023-03-17T10:44:51.118Z,3.30
2023-03-17T10:46:00.717Z,3.92
2023-03-17T10:47:02.488Z,5.15
2023-03-17T10:48:08.416Z,6.03
2023-03-17T10:49:17.171Z,3.15
2023-03-17T10:50:30.012Z,4.50
2023-03-17T10:51:35.171Z,11.32
2023-03-17T10:52:39.424Z,3.95
2023-03-17T10:53:41.918Z,5.82
2023-03-17T10:54:48.404Z,7.25
2023-03-17T10:55:52.928Z,4.18
2023-03-17T10:57:16.099Z,3.50
2023-03-17T10:58:22.580Z,8.43
2023-03-17T11:00:38.429Z,5.65
2023-03-17T11:01:46.880Z,7.00
2023-03-17T11:03:13.810Z,13.50
2023-03-17T11:04:36.342Z,15.32
2023-03-17T11:05:40.125Z,5.38
2023-03-17T11:06:43.344Z,5.22
2023-03-17T11:07:46.728Z,4.15
2023-03-17T11:08:52.932Z,3.78
2023-03-17T11:10:00.628Z,4.57
2023-03-17T11:11:06.611Z,4.63
2023-03-17T11:12:23.737Z,5.13
2023-03-17T11:13:30.262Z,4.07
2023-03-17T11:14:32.207Z,4.45
2023-03-17T11:15:46.234Z,3.92
2023-03-17T11:16:57.189Z,3.47
2023-03-17T11:18:01.250Z,3.35
2023-03-17T11:19:41.367Z,3.50
2023-03-17T11:21:01.368Z,4.20
2023-03-17T11:22:34.440Z,4.60
2023-03-17T11:23:42.157Z,4.53
2023-03-17T11:24:59.687Z,3.42
2023-03-17T11:26:12.266Z,3.97
2023-03-17T11:27:31.209Z,4.95
2023-03-17T11:28:40.329Z,5.68
2023-03-17T11:30:03.366Z,4.95
2023-03-17T11:31:15.776Z,3.60
2023-03-17T11:33:01.713Z,3.55
2023-03-17T11:34:25.499Z,5.15
2023-03-17T11:35:51.252Z,5.00
2023-03-17T11:37:00.275Z,4.75
2023-03-17T11:38:28.135Z,4.95
2023-03-17T11:39:53.140Z,4.00
2023-03-17T11:41:21.424Z,4.10
2023-03-17T11:42:47.733Z,4.53
2023-03-17T11:44:13.337Z,3.83
2023-03-17T11:45:23.535Z,4.80
2023-03-17T11:46:31.135Z,4.30
2023-03-17T11:47:53.900Z,4.00
2023-03-17T11:49:17.934Z,3.75
2023-03-17T11:50:40.849Z,3.85
2023-03-17T11:51:55.150Z,3.17
2023-03-17T11:53:09.384Z,2.47
2023-03-17T11:54:35.099Z,2.63
2023-03-17T11:57:29.284Z,4.25
2023-03-17T11:58:42.897Z,4.10
2023-03-17T12:00:03.213Z,5.72
2023-03-17T12:01:09.520Z,5.05
2023-03-17T12:02:11.308Z,3.67
2023-03-17T12:03:39.444Z,4.32
2023-03-17T12:04:48.680Z,5.90
2023-03-17T12:05:56.153Z,6.07
2023-03-17T12:07:06.616Z,9.30
2023-03-17T12:08:17.673Z,6.20
2023-03-17T12:09:34.360Z,5.50
2023-03-17T12:10:53.025Z,5.30
2023-03-17T12:11:57.085Z,4.60
2023-03-17T12:13:35.169Z,3.95
2023-03-17T12:14:48.616Z,3.72
2023-03-17T12:16:03.131Z,4.47
2023-03-17T12:17:25.785Z,4.20
2023-03-17T12:18:45.721Z,5.10
2023-03-17T12:20:05.746Z,3.58
2023-03-17T12:21:21.414Z,4.00
2023-03-17T12:23:09.469Z,4.45
2023-03-17T12:24:27.125Z,3.63
2023-03-17T12:25:37.617Z,4.15
2023-03-17T12:26:50.448Z,3.05
2023-03-17T12:28:10.473Z,3.58
2023-03-17T12:29:19.364Z,3.25
2023-03-17T12:30:53.208Z,2.92
2023-03-17T12:32:17.802Z,3.90
2023-03-17T12:33:31.064Z,4.40
2023-03-17T12:34:51.464Z,4.75
2023-03-17T12:35:53.238Z,3.70
2023-03-17T12:36:55.520Z,4.28
2023-03-17T12:38:00.810Z,4.70
2023-03-17T12:39:09.183Z,3.78
2023-03-17T12:40:20.098Z,5.43
2023-03-17T12:41:33.464Z,3.92
2023-03-17T12:42:42.617Z,4.68
2023-03-17T12:43:54.464Z,14.90
2023-03-17T12:45:25.961Z,7.50
2023-03-17T12:47:07.723Z,5.13
2023-03-17T12:48:56.136Z,4.38
2023-03-17T12:50:39.170Z,6.68
2023-03-17T12:52:11.297Z,5.50
2023-03-17T12:53:29.990Z,4.70
2023-03-17T12:54:35.715Z,4.18
2023-03-17T12:55:38.757Z,6.95
2023-03-17T12:56:46.608Z,4.80
2023-03-17T12:58:00.341Z,4.47
2023-03-17T12:59:14.798Z,5.30
2023-03-17T13:00:47.916Z,5.03
2023-03-17T13:01:58.164Z,4.43
2023-03-17T13:03:25.916Z,4.50
2023-03-17T13:04:36.864Z,4.63
2023-03-17T13:05:38.836Z,4.32
2023-03-17T13:06:53.179Z,3.80
2023-03-17T13:07:59.261Z,4.22
2023-03-17T13:09:26.921Z,5.90
2023-03-17T13:10:48.901Z,4.50
2023-03-17T13:11:50.729Z,6.47
2023-03-17T13:13:05.649Z,4.43
2023-03-17T13:14:23.976Z,3.63
2023-03-17T13:15:25.612Z,2.58
2023-03-17T13:16:38.468Z,4.78
2023-03-17T13:17:40.272Z,5.63
2023-03-17T13:18:42.004Z,3.50
2023-03-17T13:20:08.715Z,3.42
2023-03-17T13:21:16.742Z,4.18
2023-03-17T13:22:21.395Z,3.60
2023-03-17T13:23:37.891Z,4.35
2023-03-17T13:24:44.125Z,3.13
2023-03-17T13:25:51.437Z,3.15
2023-03-17T13:26:55.483Z,3.05
2023-03-17T13:28:23.880Z,2.97
2023-03-17T13:29:31.772Z,3.00
2023-03-17T13:30:36.548Z,4.07
2023-03-17T13:31:38.333Z,3.15
2023-03-17T13:32:40.211Z,4.53
2023-03-17T13:33:45.427Z,3.67
2023-03-17T13:35:14.065Z,3.40
2023-03-17T13:36:18.783Z,3.28
2023-03-17T13:39:24.753Z,3.03
2023-03-17T13:43:01.314Z,3.47
2023-03-17T13:44:38.372Z,5.05
2023-03-17T13:45:45.052Z,4.25
2023-03-17T13:46:47.534Z,5.07
2023-03-17T13:47:51.275Z,6.30
2023-03-17T13:48:55.356Z,5.70
2023-03-17T13:50:31.947Z,7.95
2023-03-17T13:51:34.237Z,6.03
2023-03-17T13:53:08.009Z,9.25
2023-03-17T13:54:40.944Z,7.53
2023-03-17T13:56:03.323Z,4.82
2023-03-17T13:57:26.686Z,4.85
2023-03-17T13:58:53.787Z,4.60
2023-03-17T14:04:16.393Z,4.35
2023-03-17T14:05:27.102Z,6.82
2023-03-17T14:06:58.370Z,3.30
2023-03-17T14:08:03.549Z,4.18
2023-03-17T14:11:50.867Z,5.47
2023-03-17T14:15:19.479Z,4.53
2023-03-17T14:16:32.332Z,4.72
2023-03-17T14:18:03.597Z,4.83
2023-03-17T14:19:19.822Z,5.88
2023-03-17T14:20:26.862Z,4.93
2023-03-17T14:21:39.289Z,3.80
2023-03-17T14:22:45.475Z,5.15
2023-03-17T14:23:55.848Z,6.03
2023-03-17T14:25:01.657Z,5.53
2023-03-17T14:26:05.765Z,8.23
2023-03-17T14:27:08.677Z,7.53
2023-03-17T14:28:16.782Z,17.58
2023-03-17T14:29:32.096Z,6.53
2023-03-17T14:30:35.985Z,4.30
2023-03-17T14:31:37.851Z,4.78
2023-03-17T14:32:39.759Z,4.10
2023-03-17T14:33:42.114Z,3.97
2023-03-17T14:35:03.436Z,3.75
2023-03-17T14:36:09.231Z,4.60
2023-03-17T14:37:11.693Z,4.78
2023-03-17T14:38:48.928Z,5.72
2023-03-17T14:39:56.755Z,3.17
2023-03-17T14:41:07.564Z,4.40
2023-03-17T14:42:09.445Z,3.97
2023-03-17T14:43:11.220Z,5.13
2023-03-17T14:44:12.944Z,5.72
2023-03-17T14:45:49.639Z,5.45
2023-03-17T14:46:59.960Z,4.95
2023-03-17T14:48:02.017Z,4.88
2023-03-17T14:49:20.589Z,3.75